Time;durP1;ratioP1;P1;durP2;ratioP2;P2;SDS_P1;SDS_P2;PMS_P1;PMS_P2;Temp;Humidity;BMP_temperature;BMP_pressure;BME280_temperature;BME280_humidity;BME280_pressure;Samples;Min_cycle;Max_cycle;Signal;HPM_P1;HPM_P2
2022/03/26 00:00:07;;;;;;;66.43;35.38;;;;;;;;;;5019755;28;20668;-70
2022/03/26 00:02:35;;;;;;;71.40;37.05;;;;;;;;;;5008368;28;21453;-70
2022/03/26 00:05:00;;;;;;;67.72;35.22;;;;;;;;;;5019832;28;20024;-70
2022/03/26 00:07:26;;;;;;;65.75;35.22;;;;;;;;;;5021443;28;20032;-70
2022/03/26 00:09:52;;;;;;;68.45;34.53;;;;;;;;;;5018520;28;20192;-70
2022/03/26 00:12:19;;;;;;;66.03;34.95;;;;;;;;;;5020501;28;20033;-69
2022/03/26 00:14:47;;;;;;;67.88;33.75;;;;;;;;;;5019403;28;20029;-70
2022/03/26 00:17:13;;;;;;;72.05;36.00;;;;;;;;;;5020448;28;20033;-70
2022/03/26 00:19:38;;;;;;;77.80;37.10;;;;;;;;;;5007722;28;20029;-76
2022/03/26 00:22:06;;;;;;;74.25;36.67;;;;;;;;;;5019726;28;20056;-76
2022/03/26 00:24:34;;;;;;;70.55;36.42;;;;;;;;;;5019146;28;20048;-76
2022/03/26 00:26:59;;;;;;;76.35;35.95;;;;;;;;;;5021017;28;20072;-76
2022/03/26 00:29:25;;;;;;;70.03;35.53;;;;;;;;;;5020789;28;20118;-76
2022/03/26 00:31:50;;;;;;;73.30;34.70;;;;;;;;;;5018873;28;20029;-76
2022/03/26 00:34:15;;;;;;;72.05;35.75;;;;;;;;;;5020607;28;20032;-77
2022/03/26 00:36:43;;;;;;;69.13;35.85;;;;;;;;;;5020985;28;20114;-76
2022/03/26 00:39:09;;;;;;;75.72;35.40;;;;;;;;;;5021771;28;20029;-76
2022/03/26 00:41:36;;;;;;;73.03;36.63;;;;;;;;;;5019725;28;20040;-76
2022/03/26 00:44:02;;;;;;;79.32;38.13;;;;;;;;;;5019382;28;20037;-76
2022/03/26 00:46:30;;;;;;;72.22;36.75;;;;;;;;;;5019050;28;20036;-76
2022/03/26 00:48:59;;;;;;;80.57;37.97;;;;;;;;;;5021364;28;20033;-77
2022/03/26 00:51:25;;;;;;;84.03;40.40;;;;;;;;;;5019465;28;20322;-76
2022/03/26 00:53:50;;;;;;;86.95;41.63;;;;;;;;;;5018988;28;20406;-76
2022/03/26 00:56:19;;;;;;;85.60;41.40;;;;;;;;;;5020430;28;20048;-76
2022/03/26 00:58:44;;;;;;;85.75;42.08;;;;;;;;;;5018484;28;20037;-76
2022/03/26 01:01:11;;;;;;;83.18;42.85;;;;;;;;;;5020103;28;20162;-77
2022/03/26 01:03:37;;;;;;;84.15;41.20;;;;;;;;;;5020298;28;20439;-77
2022/03/26 01:06:03;;;;;;;83.63;41.70;;;;;;;;;;5019694;28;20033;-77
2022/03/26 01:08:29;;;;;;;90.20;43.80;;;;;;;;;;5018716;28;20443;-77
2022/03/26 01:10:55;;;;;;;90.10;43.05;;;;;;;;;;5019816;28;20499;-76
2022/03/26 01:13:30;;;;;;;88.75;41.97;;;;;;;;;;5017979;28;20071;-76
2022/03/26 01:15:55;;;;;;;95.05;44.03;;;;;;;;;;5017725;28;20127;-77
2022/03/26 01:18:22;;;;;;;92.53;43.92;;;;;;;;;;4983417;28;20029;-77
2022/03/26 01:20:50;;;;;;;105.88;48.08;;;;;;;;;;5018320;28;20136;-76
2022/03/26 01:23:19;;;;;;;104.97;47.80;;;;;;;;;;5019749;28;20068;-76
2022/03/26 01:25:44;;;;;;;97.80;46.92;;;;;;;;;;5004677;28;20727;-76
2022/03/26 01:28:12;;;;;;;106.93;48.15;;;;;;;;;;5001594;28;21915;-76
2022/03/26 01:30:38;;;;;;;100.30;47.85;;;;;;;;;;5019303;28;20041;-77
2022/03/26 01:33:03;;;;;;;102.47;48.13;;;;;;;;;;4989578;28;20264;-77
2022/03/26 01:35:29;;;;;;;114.35;51.70;;;;;;;;;;5017826;28;20125;-77
2022/03/26 01:38:04;;;;;;;101.20;47.85;;;;;;;;;;5017152;28;20132;-77
2022/03/26 01:40:33;;;;;;;106.70;48.70;;;;;;;;;;5021441;28;20029;-77
2022/03/26 01:43:02;;;;;;;103.90;50.80;;;;;;;;;;5019274;28;20835;-77
2022/03/26 01:45:30;;;;;;;105.13;49.97;;;;;;;;;;5018462;28;20130;-76
2022/03/26 01:48:01;;;;;;;104.97;49.58;;;;;;;;;;5018729;28;20037;-77
2022/03/26 01:50:29;;;;;;;111.07;52.05;;;;;;;;;;5017039;28;20225;-76
2022/03/26 01:52:54;;;;;;;117.60;56.08;;;;;;;;;;5016109;28;20040;-77
2022/03/26 01:55:22;;;;;;;121.22;56.90;;;;;;;;;;5018355;28;20039;-77
2022/03/26 01:57:48;;;;;;;118.82;55.78;;;;;;;;;;5002246;28;20515;-77
2022/03/26 02:00:14;;;;;;;117.88;55.33;;;;;;;;;;5004390;28;20049;-77
2022/03/26 02:02:43;;;;;;;117.35;55.42;;;;;;;;;;5020025;28;20457;-76
2022/03/26 02:05:12;;;;;;;111.13;52.83;;;;;;;;;;5016789;28;20037;-76
2022/03/26 02:07:39;;;;;;;113.28;53.13;;;;;;;;;;5000527;28;20029;-76
2022/03/26 02:10:06;;;;;;;126.55;56.03;;;;;;;;;;5019377;28;20049;-76
2022/03/26 02:12:34;;;;;;;130.95;57.28;;;;;;;;;;5017166;28;20124;-76
2022/03/26 02:15:02;;;;;;;128.50;56.15;;;;;;;;;;5019491;28;20457;-76
2022/03/26 02:17:28;;;;;;;135.02;56.95;;;;;;;;;;5019009;28;20196;-75
2022/03/26 02:19:54;;;;;;;132.07;58.28;;;;;;;;;;4998968;28;20072;-76
2022/03/26 02:22:22;;;;;;;132.57;58.75;;;;;;;;;;5017460;28;20041;-76
2022/03/26 02:24:48;;;;;;;139.15;61.33;;;;;;;;;;5019055;28;20037;-76
2022/03/26 02:27:14;;;;;;;142.10;61.58;;;;;;;;;;5017665;28;20269;-76
2022/03/26 02:29:39;;;;;;;141.05;61.75;;;;;;;;;;5003470;28;20040;-76
2022/03/26 02:32:06;;;;;;;156.35;64.82;;;;;;;;;;5023835;28;20029;-76
2022/03/26 02:34:31;;;;;;;148.52;65.85;;;;;;;;;;5022703;28;20045;-76
2022/03/26 02:36:59;;;;;;;159.13;68.50;;;;;;;;;;5004409;28;20062;-77
2022/03/26 02:39:27;;;;;;;159.68;68.78;;;;;;;;;;5004704;28;20037;-77
2022/03/26 02:41:52;;;;;;;165.10;70.20;;;;;;;;;;4991857;28;20049;-77
2022/03/26 02:44:20;;;;;;;173.10;73.25;;;;;;;;;;5003920;28;20495;-77
2022/03/26 02:46:48;;;;;;;166.00;71.55;;;;;;;;;;5004777;28;20048;-77
2022/03/26 02:49:16;;;;;;;170.48;72.43;;;;;;;;;;5020028;28;20033;-71
2022/03/26 02:51:42;;;;;;;163.80;71.45;;;;;;;;;;5005213;28;20036;-71
2022/03/26 02:54:18;;;;;;;164.52;71.53;;;;;;;;;;5023269;28;20789;-71
2022/03/26 02:56:45;;;;;;;175.10;74.22;;;;;;;;;;5022052;28;20040;-71
2022/03/26 02:59:11;;;;;;;177.02;73.97;;;;;;;;;;5009895;28;20425;-70
2022/03/26 03:01:37;;;;;;;179.02;73.57;;;;;;;;;;5022369;28;20636;-70
2022/03/26 03:04:03;;;;;;;182.40;77.03;;;;;;;;;;5021650;28;21022;-70
2022/03/26 03:06:31;;;;;;;193.70;78.10;;;;;;;;;;5003772;28;20047;-71
2022/03/26 03:08:56;;;;;;;188.95;77.20;;;;;;;;;;5004702;28;20432;-71
2022/03/26 03:11:22;;;;;;;196.80;79.68;;;;;;;;;;5007924;28;20128;-70
2022/03/26 03:13:48;;;;;;;189.18;77.78;;;;;;;;;;5003331;28;20052;-71
2022/03/26 03:16:18;;;;;;;180.55;77.88;;;;;;;;;;5021647;28;20665;-71
2022/03/26 03:18:46;;;;;;;192.82;79.28;;;;;;;;;;5021964;28;20571;-71
2022/03/26 03:21:15;;;;;;;188.23;78.88;;;;;;;;;;5023255;28;20264;-70
2022/03/26 03:23:40;;;;;;;197.43;81.97;;;;;;;;;;5021626;28;20034;-70
2022/03/26 03:26:06;;;;;;;203.13;82.43;;;;;;;;;;5020773;28;20041;-69
2022/03/26 03:28:31;;;;;;;196.68;78.40;;;;;;;;;;5021343;28;20723;-70
2022/03/26 03:30:59;;;;;;;188.68;76.78;;;;;;;;;;5008985;28;20488;-71
2022/03/26 03:33:25;;;;;;;189.68;75.78;;;;;;;;;;5021083;28;20617;-70
2022/03/26 03:35:51;;;;;;;191.10;76.00;;;;;;;;;;5022392;28;20128;-70
2022/03/26 03:38:16;;;;;;;189.38;75.72;;;;;;;;;;5021497;28;20119;-71
2022/03/26 03:40:43;;;;;;;189.02;76.82;;;;;;;;;;4986067;28;20029;-70
2022/03/26 03:43:09;;;;;;;193.57;76.40;;;;;;;;;;5021989;28;20028;-70
2022/03/26 03:45:36;;;;;;;206.95;80.38;;;;;;;;;;5019749;28;22019;-70
2022/03/26 03:48:01;;;;;;;205.57;82.30;;;;;;;;;;5002595;28;20444;-70
2022/03/26 03:50:27;;;;;;;198.40;80.95;;;;;;;;;;5002196;28;20199;-70
2022/03/26 03:52:53;;;;;;;194.48;77.60;;;;;;;;;;5020771;28;20017;-71
2022/03/26 03:55:19;;;;;;;198.98;79.28;;;;;;;;;;5003386;28;20032;-71
2022/03/26 03:57:47;;;;;;;205.27;80.43;;;;;;;;;;5020697;28;20043;-71
2022/03/26 04:00:14;;;;;;;207.82;80.47;;;;;;;;;;5001936;28;20033;-70
2022/03/26 04:02:42;;;;;;;211.30;81.88;;;;;;;;;;5020072;28;20392;-70
2022/03/26 04:05:11;;;;;;;203.57;78.25;;;;;;;;;;5003854;28;20025;-71
2022/03/26 04:07:37;;;;;;;206.43;80.90;;;;;;;;;;5020784;28;20542;-70
2022/03/26 04:10:07;;;;;;;210.93;80.13;;;;;;;;;;5002814;28;20138;-71
2022/03/26 04:12:40;;;;;;;200.98;80.15;;;;;;;;;;5020393;28;20044;-71
2022/03/26 04:15:06;;;;;;;193.13;76.45;;;;;;;;;;5002533;28;20518;-71
2022/03/26 04:17:32;;;;;;;216.07;81.63;;;;;;;;;;5019961;28;20124;-70
2022/03/26 04:19:58;;;;;;;214.13;81.88;;;;;;;;;;5003070;28;20052;-70
2022/03/26 04:22:25;;;;;;;208.82;80.80;;;;;;;;;;5020852;28;20485;-69
2022/03/26 04:24:53;;;;;;;206.73;81.80;;;;;;;;;;5002530;28;20277;-71
2022/03/26 04:27:19;;;;;;;232.82;82.63;;;;;;;;;;5020251;28;20044;-71
2022/03/26 04:29:49;;;;;;;249.18;91.70;;;;;;;;;;5001249;28;20059;-72
2022/03/26 04:32:15;;;;;;;228.80;86.43;;;;;;;;;;5020327;28;20033;-70
2022/03/26 04:34:41;;;;;;;236.93;88.18;;;;;;;;;;5020252;28;20037;-70
2022/03/26 04:37:09;;;;;;;232.32;85.88;;;;;;;;;;5019096;28;20029;-70
2022/03/26 04:39:34;;;;;;;236.27;88.47;;;;;;;;;;5018704;28;20056;-70
2022/03/26 04:42:00;;;;;;;247.20;91.03;;;;;;;;;;5020432;28;20128;-72
2022/03/26 04:44:27;;;;;;;243.82;91.55;;;;;;;;;;5020239;28;21956;-70
2022/03/26 04:46:55;;;;;;;240.77;89.05;;;;;;;;;;5003042;28;20102;-71
2022/03/26 04:49:21;;;;;;;239.75;85.95;;;;;;;;;;5002457;28;20032;-70
2022/03/26 04:51:50;;;;;;;236.15;89.97;;;;;;;;;;5005575;28;20037;-70
2022/03/26 04:54:15;;;;;;;228.40;86.43;;;;;;;;;;5021529;28;20032;-70
2022/03/26 04:56:43;;;;;;;239.45;87.05;;;;;;;;;;5001286;28;20086;-70
2022/03/26 04:59:11;;;;;;;241.90;90.03;;;;;;;;;;5019619;28;20297;-70
2022/03/26 05:01:37;;;;;;;240.95;88.13;;;;;;;;;;5005785;28;20033;-70
2022/03/26 05:04:03;;;;;;;241.57;87.40;;;;;;;;;;5020011;28;20032;-70
2022/03/26 05:06:31;;;;;;;244.75;89.72;;;;;;;;;;5019386;28;20041;-70
2022/03/26 05:08:56;;;;;;;255.43;92.50;;;;;;;;;;5019115;28;20057;-69
2022/03/26 05:11:24;;;;;;;254.52;90.50;;;;;;;;;;4985308;28;20438;-70
2022/03/26 05:13:49;;;;;;;247.20;89.70;;;;;;;;;;5019996;28;20068;-71
2022/03/26 05:16:15;;;;;;;251.25;88.78;;;;;;;;;;5020003;28;20436;-71
2022/03/26 05:18:41;;;;;;;251.13;90.65;;;;;;;;;;5018662;28;20088;-70
2022/03/26 05:21:08;;;;;;;261.10;93.63;;;;;;;;;;5019342;28;20063;-70
2022/03/26 05:23:35;;;;;;;253.02;91.65;;;;;;;;;;5000219;28;20033;-71
2022/03/26 05:26:01;;;;;;;257.60;89.53;;;;;;;;;;5019120;28;20167;-71
2022/03/26 05:28:27;;;;;;;252.07;89.75;;;;;;;;;;4983250;28;20033;-71
2022/03/26 05:30:54;;;;;;;234.57;87.65;;;;;;;;;;5000474;28;20055;-71
2022/03/26 05:33:20;;;;;;;247.73;87.85;;;;;;;;;;5017727;28;20041;-69
2022/03/26 05:35:45;;;;;;;244.32;88.70;;;;;;;;;;5000461;28;20033;-71
2022/03/26 05:38:10;;;;;;;256.10;90.50;;;;;;;;;;5018610;28;20103;-70
2022/03/26 05:40:38;;;;;;;250.15;88.13;;;;;;;;;;4983168;28;20519;-70
2022/03/26 05:43:07;;;;;;;253.07;89.65;;;;;;;;;;5019440;28;20055;-70
2022/03/26 05:45:32;;;;;;;256.13;91.30;;;;;;;;;;5018897;28;20037;-71
2022/03/26 05:48:02;;;;;;;262.60;90.00;;;;;;;;;;5021522;28;20528;-70
2022/03/26 05:50:28;;;;;;;258.38;92.30;;;;;;;;;;5017737;28;20464;-72
2022/03/26 05:52:53;;;;;;;252.98;90.63;;;;;;;;;;5019413;28;20029;-71
2022/03/26 05:55:19;;;;;;;256.58;90.65;;;;;;;;;;5019782;28;20029;-71
2022/03/26 05:57:47;;;;;;;249.45;89.68;;;;;;;;;;5000269;28;20045;-71
2022/03/26 06:00:13;;;;;;;243.45;87.57;;;;;;;;;;5018090;28;20135;-72
2022/03/26 06:02:38;;;;;;;252.93;91.40;;;;;;;;;;5018944;28;20120;-72
2022/03/26 06:05:04;;;;;;;250.60;90.25;;;;;;;;;;5018751;28;20140;-72
2022/03/26 06:07:32;;;;;;;244.40;88.88;;;;;;;;;;5001203;28;20037;-71
2022/03/26 06:09:58;;;;;;;250.32;89.15;;;;;;;;;;5017672;28;20581;-70
2022/03/26 06:12:29;;;;;;;259.55;91.57;;;;;;;;;;5018114;28;20125;-70
2022/03/26 06:14:54;;;;;;;250.93;90.03;;;;;;;;;;4999649;28;20033;-70
2022/03/26 06:17:21;;;;;;;245.88;92.32;;;;;;;;;;5019253;28;20298;-72
2022/03/26 06:19:46;;;;;;;251.23;91.25;;;;;;;;;;5018019;28;20103;-70
2022/03/26 06:22:12;;;;;;;245.57;90.20;;;;;;;;;;5020937;28;20036;-71
2022/03/26 06:24:42;;;;;;;243.77;88.85;;;;;;;;;;5017101;28;20652;-70
2022/03/26 06:27:10;;;;;;;243.38;89.28;;;;;;;;;;4988432;28;20037;-71
2022/03/26 06:29:40;;;;;;;253.95;93.70;;;;;;;;;;5016960;28;20474;-70
2022/03/26 06:32:08;;;;;;;255.32;93.25;;;;;;;;;;5020129;28;20071;-71
2022/03/26 06:34:37;;;;;;;249.00;88.88;;;;;;;;;;5020366;28;20090;-70
2022/03/26 06:37:02;;;;;;;240.30;92.95;;;;;;;;;;5002858;28;20037;-70
2022/03/26 06:39:28;;;;;;;245.70;91.38;;;;;;;;;;5020318;28;20433;-70
2022/03/26 06:41:53;;;;;;;242.45;90.50;;;;;;;;;;5006047;28;20029;-77
2022/03/26 06:44:21;;;;;;;230.07;85.18;;;;;;;;;;5017596;28;20275;-78
2022/03/26 06:46:48;;;;;;;230.63;88.40;;;;;;;;;;5016864;28;20029;-77
2022/03/26 06:49:14;;;;;;;231.02;89.35;;;;;;;;;;5019312;28;20075;-77
2022/03/26 06:51:39;;;;;;;226.40;86.90;;;;;;;;;;5022936;28;20025;-77
2022/03/26 06:54:05;;;;;;;217.15;88.45;;;;;;;;;;5017475;28;20060;-77
2022/03/26 06:56:30;;;;;;;205.88;85.07;;;;;;;;;;5018337;28;20126;-77
2022/03/26 06:58:56;;;;;;;204.32;84.10;;;;;;;;;;5018266;28;20477;-77
2022/03/26 07:01:22;;;;;;;215.35;85.47;;;;;;;;;;5020258;28;20040;-78
2022/03/26 07:03:48;;;;;;;198.68;80.78;;;;;;;;;;5003208;28;20120;-77
2022/03/26 07:06:16;;;;;;;183.93;77.93;;;;;;;;;;5021110;28;20610;-77
2022/03/26 07:08:41;;;;;;;157.85;71.00;;;;;;;;;;5020599;28;20280;-77
2022/03/26 07:11:10;;;;;;;150.77;69.80;;;;;;;;;;5018379;28;20541;-77
2022/03/26 07:13:37;;;;;;;133.18;64.57;;;;;;;;;;5006091;28;20041;-77
2022/03/26 07:16:03;;;;;;;121.00;63.20;;;;;;;;;;5002037;28;20040;-79
2022/03/26 07:18:28;;;;;;;123.50;65.57;;;;;;;;;;5022244;28;20374;-77
2022/03/26 07:21:00;;;;;;;115.78;63.50;;;;;;;;;;5008069;28;20029;-77
2022/03/26 07:23:25;;;;;;;112.30;64.93;;;;;;;;;;5022065;28;20029;-75
2022/03/26 07:25:51;;;;;;;111.13;62.55;;;;;;;;;;5020578;28;20822;-76
2022/03/26 07:28:19;;;;;;;102.03;59.55;;;;;;;;;;5020922;28;21665;-76
2022/03/26 07:30:52;;;;;;;95.32;57.65;;;;;;;;;;5020428;28;20048;-77
2022/03/26 07:33:18;;;;;;;95.07;55.45;;;;;;;;;;5020512;28;20034;-77
2022/03/26 07:35:45;;;;;;;94.47;55.67;;;;;;;;;;5021209;28;20090;-77
2022/03/26 07:38:13;;;;;;;92.00;56.92;;;;;;;;;;5004113;28;20462;-77
2022/03/26 07:40:38;;;;;;;95.80;58.50;;;;;;;;;;5020490;28;20033;-77
2022/03/26 07:43:07;;;;;;;92.47;59.28;;;;;;;;;;5019666;28;20074;-77
2022/03/26 07:45:33;;;;;;;105.40;66.05;;;;;;;;;;5019975;28;20025;-77
2022/03/26 07:47:59;;;;;;;104.25;67.65;;;;;;;;;;5020595;28;20061;-78
2022/03/26 07:50:24;;;;;;;105.13;68.85;;;;;;;;;;5007739;28;20686;-78
2022/03/26 07:52:50;;;;;;;117.13;73.93;;;;;;;;;;5022614;28;20029;-80
2022/03/26 07:55:17;;;;;;;116.55;75.35;;;;;;;;;;5020030;28;20563;-77
2022/03/26 07:57:45;;;;;;;116.72;75.18;;;;;;;;;;5021898;28;20036;-76
2022/03/26 08:00:11;;;;;;;120.68;75.80;;;;;;;;;;5021806;28;20556;-77
2022/03/26 08:02:36;;;;;;;122.65;77.10;;;;;;;;;;4991987;28;20309;-77
2022/03/26 08:05:05;;;;;;;119.25;73.03;;;;;;;;;;5021774;28;20047;-76
2022/03/26 08:07:31;;;;;;;103.55;67.95;;;;;;;;;;5022185;28;20064;-76
2022/03/26 08:09:59;;;;;;;117.28;73.28;;;;;;;;;;4988669;28;20118;-76
2022/03/26 08:12:24;;;;;;;120.05;75.85;;;;;;;;;;5021025;28;20032;-76
2022/03/26 08:14:50;;;;;;;120.43;75.93;;;;;;;;;;5021240;28;20560;-76
2022/03/26 08:17:16;;;;;;;124.03;77.07;;;;;;;;;;4987774;28;20040;-76
2022/03/26 08:19:41;;;;;;;121.68;74.85;;;;;;;;;;4987291;28;20037;-77
2022/03/26 08:22:09;;;;;;;127.57;82.35;;;;;;;;;;4992420;28;20368;-76
2022/03/26 08:24:34;;;;;;;137.77;88.00;;;;;;;;;;5020954;28;20152;-76
2022/03/26 08:27:04;;;;;;;133.18;85.05;;;;;;;;;;5021781;28;20882;-76
2022/03/26 08:29:29;;;;;;;140.50;88.05;;;;;;;;;;5020811;28;20554;-75
2022/03/26 08:31:58;;;;;;;133.70;84.22;;;;;;;;;;5022030;28;20049;-75
2022/03/26 08:34:23;;;;;;;130.55;83.05;;;;;;;;;;5020170;28;20024;-76
2022/03/26 08:36:51;;;;;;;123.05;78.78;;;;;;;;;;5002533;28;20079;-76
2022/03/26 08:39:17;;;;;;;121.47;77.30;;;;;;;;;;5020980;28;20452;-76
2022/03/26 08:41:45;;;;;;;118.38;74.45;;;;;;;;;;5021355;28;20100;-76
2022/03/26 08:44:11;;;;;;;114.15;74.72;;;;;;;;;;5019777;28;20829;-75
2022/03/26 08:46:37;;;;;;;113.43;73.32;;;;;;;;;;5020092;28;20082;-75
2022/03/26 08:49:02;;;;;;;107.47;68.00;;;;;;;;;;5003179;28;20353;-75
2022/03/26 08:51:27;;;;;;;105.85;66.55;;;;;;;;;;5020478;28;20091;-75
2022/03/26 08:53:55;;;;;;;103.28;65.95;;;;;;;;;;5019927;28;20029;-70
2022/03/26 08:56:21;;;;;;;107.22;68.50;;;;;;;;;;5026123;28;20041;-70
2022/03/26 08:58:49;;;;;;;104.70;66.85;;;;;;;;;;5028631;28;20017;-71
2022/03/26 09:01:15;;;;;;;105.53;66.68;;;;;;;;;;5008686;28;20383;-71
2022/03/26 09:03:43;;;;;;;102.43;66.78;;;;;;;;;;5016461;28;20032;-71
2022/03/26 09:06:08;;;;;;;100.70;64.93;;;;;;;;;;5031719;28;20503;-69
2022/03/26 09:08:34;;;;;;;100.72;65.43;;;;;;;;;;5036608;28;20033;-69
2022/03/26 09:11:00;;;;;;;104.68;64.07;;;;;;;;;;5039410;28;20045;-70
2022/03/26 09:13:25;;;;;;;108.43;65.30;;;;;;;;;;5029037;28;20036;-69
2022/03/26 09:15:50;;;;;;;100.75;63.40;;;;;;;;;;5030239;28;20025;-69
2022/03/26 09:18:16;;;;;;;97.68;56.92;;;;;;;;;;5034415;28;20104;-69
2022/03/26 09:20:41;;;;;;;96.47;53.53;;;;;;;;;;5011466;28;20491;-71
2022/03/26 09:23:07;;;;;;;91.72;50.08;;;;;;;;;;5029848;28;20116;-70
2022/03/26 09:25:36;;;;;;;92.32;49.00;;;;;;;;;;5034843;28;20021;-70
2022/03/26 09:28:01;;;;;;;94.97;48.08;;;;;;;;;;5031459;28;20018;-69
2022/03/26 09:30:27;;;;;;;88.65;46.35;;;;;;;;;;5010828;28;20030;-70
2022/03/26 09:32:52;;;;;;;82.50;43.90;;;;;;;;;;5027589;28;20017;-70
2022/03/26 09:35:18;;;;;;;72.78;42.13;;;;;;;;;;5011574;28;20052;-70
2022/03/26 09:37:46;;;;;;;76.65;40.25;;;;;;;;;;5033401;28;20037;-70
2022/03/26 09:40:14;;;;;;;72.85;41.97;;;;;;;;;;5017949;28;20481;-70
2022/03/26 09:42:39;;;;;;;74.30;41.75;;;;;;;;;;5020055;28;20507;-70
2022/03/26 09:45:09;;;;;;;69.55;41.72;;;;;;;;;;5030987;28;20021;-69
2022/03/26 09:47:35;;;;;;;70.82;40.67;;;;;;;;;;5026476;28;20089;-69
2022/03/26 09:50:00;;;;;;;72.25;41.70;;;;;;;;;;5031792;28;20051;-70
2022/03/26 09:52:26;;;;;;;66.28;39.70;;;;;;;;;;5029918;28;20098;-69
2022/03/26 09:54:51;;;;;;;59.85;38.08;;;;;;;;;;5027852;28;20392;-69
2022/03/26 09:57:17;;;;;;;64.72;38.58;;;;;;;;;;5033917;28;20118;-69
2022/03/26 09:59:42;;;;;;;63.72;37.50;;;;;;;;;;5036546;28;20036;-70
2022/03/26 10:02:08;;;;;;;63.78;37.53;;;;;;;;;;5034903;28;20044;-69
2022/03/26 10:04:37;;;;;;;64.90;38.97;;;;;;;;;;5035598;28;20025;-70
2022/03/26 10:07:05;;;;;;;64.47;36.28;;;;;;;;;;5032744;28;20839;-69
2022/03/26 10:09:33;;;;;;;63.85;36.63;;;;;;;;;;5016136;28;20068;-70
2022/03/26 10:12:03;;;;;;;57.35;35.47;;;;;;;;;;5039418;28;20132;-71
2022/03/26 10:14:41;;;;;;;60.05;34.80;;;;;;;;;;5033112;28;20037;-71
2022/03/26 10:17:15;;;;;;;65.18;35.35;;;;;;;;;;5015616;28;20029;-71
2022/03/26 10:19:41;;;;;;;57.70;32.95;;;;;;;;;;5028919;28;20041;-71
2022/03/26 10:22:11;;;;;;;57.70;34.42;;;;;;;;;;5030816;28;20032;-71
2022/03/26 10:24:41;;;;;;;62.50;34.78;;;;;;;;;;5026948;28;20345;-70
2022/03/26 10:27:10;;;;;;;62.65;36.65;;;;;;;;;;5027982;28;20037;-70
2022/03/26 10:29:55;;;;;;;56.72;34.30;;;;;;;;;;5012125;28;20033;-70
2022/03/26 10:35:12;;;;;;;51.38;30.02;;;;;;;;;;5025809;28;20275;-70
2022/03/26 10:37:41;;;;;;;51.45;29.75;;;;;;;;;;5032903;28;20723;-69
2022/03/26 10:40:24;;;;;;;54.47;31.08;;;;;;;;;;5035035;28;20531;-69
2022/03/26 10:42:53;;;;;;;58.97;34.50;;;;;;;;;;5022623;28;20310;-70
2022/03/26 10:45:18;;;;;;;61.28;34.83;;;;;;;;;;5023803;28;20078;-71
2022/03/26 10:47:52;;;;;;;58.78;35.08;;;;;;;;;;5018774;28;20192;-71
2022/03/26 10:50:18;;;;;;;54.67;32.97;;;;;;;;;;5020513;28;20095;-70
2022/03/26 10:52:43;;;;;;;62.00;33.63;;;;;;;;;;5023357;28;20041;-72
2022/03/26 10:55:13;;;;;;;61.30;33.55;;;;;;;;;;5004532;28;20504;-74
2022/03/26 10:57:38;;;;;;;62.50;33.08;;;;;;;;;;5021589;28;20083;-70
2022/03/26 11:00:04;;;;;;;56.20;32.28;;;;;;;;;;5022246;28;20361;-70
2022/03/26 11:02:31;;;;;;;56.83;31.73;;;;;;;;;;5022143;28;20276;-70
2022/03/26 11:04:56;;;;;;;55.50;31.13;;;;;;;;;;5023039;28;20467;-70
2022/03/26 11:07:23;;;;;;;55.00;31.88;;;;;;;;;;5032105;28;20082;-70
2022/03/26 11:09:48;;;;;;;58.92;34.08;;;;;;;;;;5035150;28;20053;-71
2022/03/26 11:12:17;;;;;;;57.65;33.13;;;;;;;;;;5038146;28;20037;-71
2022/03/26 11:14:43;;;;;;;59.13;33.55;;;;;;;;;;5039888;28;20045;-71
2022/03/26 11:17:12;;;;;;;62.45;34.80;;;;;;;;;;5025074;28;20037;-71
2022/03/26 11:19:37;;;;;;;59.97;34.10;;;;;;;;;;5037553;28;20060;-71
2022/03/26 11:22:05;;;;;;;58.13;33.25;;;;;;;;;;5043489;28;20107;-71
2022/03/26 11:24:50;;;;;;;63.22;35.92;;;;;;;;;;5038887;28;20013;-71
2022/03/26 11:27:34;;;;;;;68.68;36.55;;;;;;;;;;5040360;28;20208;-71
2022/03/26 11:30:05;;;;;;;61.28;34.67;;;;;;;;;;5037652;28;20396;-71
2022/03/26 11:32:43;;;;;;;60.63;32.75;;;;;;;;;;5040422;28;20025;-71
2022/03/26 11:35:20;;;;;;;56.33;33.15;;;;;;;;;;5024978;28;20120;-71
2022/03/26 11:37:53;;;;;;;63.38;34.40;;;;;;;;;;5026010;28;20065;-71
2022/03/26 11:40:37;;;;;;;56.63;33.33;;;;;;;;;;5037504;28;20025;-71
2022/03/26 11:43:03;;;;;;;58.05;33.90;;;;;;;;;;5040826;28;20136;-72
2022/03/26 11:51:13;;;;;;;62.83;32.72;;;;;;;;;;5042060;28;20090;-70
2022/03/26 11:53:41;;;;;;;59.15;33.47;;;;;;;;;;5040435;28;20026;-73
2022/03/26 11:56:21;;;;;;;55.90;31.80;;;;;;;;;;5036986;28;20524;-70
2022/03/26 11:59:02;;;;;;;55.65;31.50;;;;;;;;;;5036982;28;20802;-72
2022/03/26 12:01:34;;;;;;;57.05;32.55;;;;;;;;;;5018832;28;20435;-72
2022/03/26 12:04:07;;;;;;;56.22;31.23;;;;;;;;;;5018232;28;20045;-71
2022/03/26 12:06:42;;;;;;;52.72;30.65;;;;;;;;;;5037202;28;21907;-72
2022/03/26 12:09:09;;;;;;;61.60;32.20;;;;;;;;;;5044387;28;20104;-71
2022/03/26 12:11:37;;;;;;;57.92;34.03;;;;;;;;;;5039823;28;20033;-72
2022/03/26 12:14:09;;;;;;;61.35;35.42;;;;;;;;;;5019904;28;20040;-72
2022/03/26 12:16:52;;;;;;;59.17;35.83;;;;;;;;;;5034624;28;20041;-70
2022/03/26 12:19:37;;;;;;;65.85;39.55;;;;;;;;;;5019716;28;20214;-72
2022/03/26 12:22:21;;;;;;;65.93;40.47;;;;;;;;;;5020629;28;20078;-71
2022/03/26 12:24:47;;;;;;;71.65;43.90;;;;;;;;;;5012321;28;20029;-72
2022/03/26 12:27:13;;;;;;;69.53;43.75;;;;;;;;;;5031849;28;20020;-72
2022/03/26 12:29:39;;;;;;;74.05;45.78;;;;;;;;;;5028612;28;20034;-72
2022/03/26 12:32:04;;;;;;;73.97;45.97;;;;;;;;;;5025306;28;20036;-72
2022/03/26 12:34:30;;;;;;;76.93;48.30;;;;;;;;;;5013424;28;20643;-72
2022/03/26 12:37:01;;;;;;;71.03;45.35;;;;;;;;;;5032789;28;20033;-71
2022/03/26 12:39:34;;;;;;;69.70;43.92;;;;;;;;;;5020576;28;20070;-71
2022/03/26 12:41:59;;;;;;;67.68;42.88;;;;;;;;;;5039324;28;20525;-72
2022/03/26 12:44:25;;;;;;;66.88;43.55;;;;;;;;;;5034772;28;20108;-71
2022/03/26 12:46:58;;;;;;;67.10;42.88;;;;;;;;;;5038777;28;20116;-70
2022/03/26 12:49:23;;;;;;;68.63;42.22;;;;;;;;;;5017825;28;20044;-70
2022/03/26 12:51:49;;;;;;;64.22;41.08;;;;;;;;;;5028001;28;20389;-70
2022/03/26 12:54:15;;;;;;;61.00;36.67;;;;;;;;;;5027610;28;20176;-70
2022/03/26 12:56:41;;;;;;;60.72;39.42;;;;;;;;;;5029821;28;20040;-72
2022/03/26 12:59:06;;;;;;;65.60;41.58;;;;;;;;;;5009715;28;20657;-71
2022/03/26 13:01:31;;;;;;;59.85;39.78;;;;;;;;;;5025704;28;20476;-70
2022/03/26 13:04:00;;;;;;;66.22;41.45;;;;;;;;;;5009633;28;20079;-70
2022/03/26 13:06:26;;;;;;;67.88;42.85;;;;;;;;;;5012598;28;20116;-70
2022/03/26 13:08:52;;;;;;;69.75;42.72;;;;;;;;;;5011023;28;20301;-70
2022/03/26 13:11:18;;;;;;;69.15;42.45;;;;;;;;;;5022767;28;20598;-70
2022/03/26 13:13:54;;;;;;;68.28;42.17;;;;;;;;;;5025045;28;20618;-69
2022/03/26 13:16:21;;;;;;;69.75;44.83;;;;;;;;;;5027513;28;20025;-70
2022/03/26 13:18:53;;;;;;;74.22;47.25;;;;;;;;;;5028880;28;20021;-70
2022/03/26 13:21:19;;;;;;;76.85;46.45;;;;;;;;;;5022871;28;20974;-70
2022/03/26 13:23:51;;;;;;;79.65;48.60;;;;;;;;;;5021536;28;20029;-70
2022/03/26 13:26:17;;;;;;;75.47;47.92;;;;;;;;;;5018910;28;20025;-70
2022/03/26 13:28:43;;;;;;;76.22;48.75;;;;;;;;;;5020629;28;20614;-70
2022/03/26 13:31:24;;;;;;;77.20;47.50;;;;;;;;;;5019827;28;20133;-70
2022/03/26 13:33:52;;;;;;;77.43;48.22;;;;;;;;;;5022549;28;20138;-70
2022/03/26 13:36:28;;;;;;;74.93;47.42;;;;;;;;;;5022061;28;20492;-70
2022/03/26 13:38:54;;;;;;;81.40;50.05;;;;;;;;;;5003366;28;20211;-70
2022/03/26 13:41:20;;;;;;;75.57;48.42;;;;;;;;;;4985610;28;20437;-70
2022/03/26 13:43:47;;;;;;;81.47;49.60;;;;;;;;;;5022434;28;20021;-72
2022/03/26 13:46:13;;;;;;;73.88;48.75;;;;;;;;;;5021250;28;20028;-70
2022/03/26 13:48:52;;;;;;;83.55;49.97;;;;;;;;;;5028537;28;20122;-69
2022/03/26 13:51:28;;;;;;;77.25;48.88;;;;;;;;;;5028478;28;20045;-69
2022/03/26 13:53:54;;;;;;;78.18;49.17;;;;;;;;;;5024761;28;20037;-74
2022/03/26 13:56:23;;;;;;;76.55;47.63;;;;;;;;;;5021150;28;20290;-71
2022/03/26 13:58:50;;;;;;;72.50;48.90;;;;;;;;;;5017279;28;20034;-71
2022/03/26 14:01:16;;;;;;;82.90;48.08;;;;;;;;;;5019371;28;20029;-70
2022/03/26 14:03:41;;;;;;;73.22;46.38;;;;;;;;;;5018938;28;20063;-70
2022/03/26 14:06:07;;;;;;;65.97;43.35;;;;;;;;;;5021488;28;20025;-73
2022/03/26 14:08:35;;;;;;;65.53;40.50;;;;;;;;;;5021490;28;20037;-71
2022/03/26 14:11:02;;;;;;;60.90;38.15;;;;;;;;;;5017554;28;20080;-70
2022/03/26 14:13:28;;;;;;;59.85;39.50;;;;;;;;;;5020779;28;20048;-71
2022/03/26 14:15:54;;;;;;;60.03;39.08;;;;;;;;;;5016518;28;20062;-71
2022/03/26 14:18:20;;;;;;;58.65;36.47;;;;;;;;;;5018782;28;20058;-73
2022/03/26 14:20:46;;;;;;;60.72;40.00;;;;;;;;;;5019036;28;20524;-72